Time;durP1;ratioP1;P1;durP2;ratioP2;P2;SDS_P1;SDS_P2;PMS_P1;PMS_P2;Temp;Humidity;BMP_temperature;BMP_pressure;BME280_temperature;BME280_humidity;BME280_pressure;Samples;Min_cycle;Max_cycle;Signal;HPM_P1;HPM_P2
2021/11/18 00:00:55;;;;;;;;;;;;;;;5.68;100.00;101433.22;5092297;28;19924;-66
2021/11/18 00:03:22;;;;;;;;;;;;;;;5.66;100.00;101440.50;5092175;28;19924;-67
2021/11/18 00:05:48;;;;;;;;;;;;;;;5.66;100.00;101434.25;5092153;28;20022;-67
2021/11/18 00:08:15;;;;;;;;;;;;;;;5.64;100.00;101431.63;5091794;28;20023;-67
2021/11/18 00:10:44;;;;;;;;;;;;;;;5.64;100.00;101434.31;5074104;28;20049;-67
2021/11/18 00:13:12;;;;;;;;;;;;;;;5.60;100.00;101437.22;5091290;28;20495;-66
2021/11/18 00:15:38;;;;;;;;;;;;;;;5.55;100.00;101442.84;5092269;28;20022;-67
2021/11/18 00:18:05;;;;;;;;;;;;;;;5.50;100.00;101445.75;5091780;28;19988;-67
2021/11/18 00:20:33;;;;;;;;;;;;;;;5.47;100.00;101442.34;5091899;28;19982;-67
2021/11/18 00:22:59;;;;;;;;;;;;;;;5.43;100.00;101446.16;5091696;28;20049;-66
2021/11/18 00:25:26;;;;;;;;;;;;;;;5.44;100.00;101448.75;5091790;28;20015;-67
2021/11/18 00:27:53;;;;;;;;;;;;;;;5.44;100.00;101440.69;5090499;28;20371;-67
2021/11/18 00:30:20;;;;;;;;;;;;;;;5.43;100.00;101443.47;5090598;28;19977;-66
2021/11/18 00:32:47;;;;;;;;;;;;;;;5.40;100.00;101451.66;5091920;28;20022;-67
2021/11/18 00:35:15;;;;;;;;;;;;;;;5.37;100.00;101452.69;5091458;28;20039;-65
2021/11/18 00:37:42;;;;;;;;;;;;;;;5.33;100.00;101448.38;5091290;28;20398;-65
2021/11/18 00:40:09;;;;;;;;;;;;;;;5.32;100.00;101457.44;5091813;28;19963;-66
2021/11/18 00:42:36;;;;;;;;;;;;;;;5.28;100.00;101469.28;5091317;28;20317;-65
2021/11/18 00:45:04;;;;;;;;;;;;;;;5.25;100.00;101464.94;5091690;28;19931;-67
2021/11/18 00:47:31;;;;;;;;;;;;;;;5.23;100.00;101474.03;5091249;28;20421;-67
2021/11/18 00:49:57;;;;;;;;;;;;;;;5.19;100.00;101476.84;5090392;28;20042;-67
2021/11/18 00:52:24;;;;;;;;;;;;;;;5.16;100.00;101482.38;5091619;28;20294;-67
2021/11/18 00:54:51;;;;;;;;;;;;;;;5.12;100.00;101486.16;5091394;28;19962;-67
2021/11/18 00:57:18;;;;;;;;;;;;;;;5.05;100.00;101476.63;5090318;28;19928;-64
2021/11/18 00:59:46;;;;;;;;;;;;;;;4.96;100.00;101483.28;5091178;28;19967;-67
2021/11/18 01:02:14;;;;;;;;;;;;;;;4.89;100.00;101479.16;5089867;28;19928;-68
2021/11/18 01:04:40;;;;;;;;;;;;;;;4.84;100.00;101479.34;5090117;28;20010;-67
2021/11/18 01:07:07;;;;;;;;;;;;;;;4.81;100.00;101483.97;5090090;28;20018;-66
2021/11/18 01:09:33;;;;;;;;;;;;;;;4.75;100.00;101487.81;5090220;28;19924;-66
2021/11/18 01:12:00;;;;;;;;;;;;;;;4.73;100.00;101483.44;5091005;28;20385;-67
2021/11/18 01:14:27;;;;;;;;;;;;;;;4.70;100.00;101481.78;5090155;28;19924;-66
2021/11/18 01:16:56;;;;;;;;;;;;;;;4.64;100.00;101484.75;5089660;28;20002;-66
2021/11/18 01:19:27;;;;;;;;;;;;;;;4.60;100.00;101496.59;5089711;28;19925;-67
2021/11/18 01:21:57;;;;;;;;;;;;;;;4.58;100.00;101499.31;5089366;28;20392;-66
2021/11/18 01:24:23;;;;;;;;;;;;;;;4.55;100.00;101495.91;5091627;28;20332;-66
2021/11/18 01:27:10;;;;;;;;;;;;;;;4.57;100.00;101497.59;5096468;28;19932;-67
2021/11/18 01:29:36;;;;;;;;;;;;;;;4.61;100.00;101490.25;5096197;28;20364;-66
2021/11/18 01:32:03;;;;;;;;;;;;;;;4.62;100.00;101497.38;5096544;28;19932;-67
2021/11/18 01:34:33;;;;;;;;;;;;;;;4.62;100.00;101497.38;5096267;28;20015;-67
2021/11/18 01:37:00;;;;;;;;;;;;;;;4.59;100.00;101492.13;5096347;28;19935;-67
2021/11/18 01:39:26;;;;;;;;;;;;;;;4.55;100.00;101490.53;5097217;28;19931;-66
2021/11/18 01:41:55;;;;;;;;;;;;;;;4.48;100.00;101493.47;5096164;28;19924;-67
2021/11/18 01:44:27;;;;;;;;;;;;;;;4.41;100.00;101500.06;5096392;28;20610;-67
2021/11/18 01:46:54;;;;;;;;;;;;;;;4.40;100.00;101508.22;5096311;28;19924;-66
2021/11/18 01:49:24;;;;;;;;;;;;;;;4.39;100.00;101510.00;5096311;28;20414;-67
2021/11/18 01:51:55;;;;;;;;;;;;;;;4.39;100.00;101511.81;5078925;28;19935;-66
2021/11/18 01:54:24;;;;;;;;;;;;;;;4.37;100.00;101517.28;5078295;28;19925;-67
2021/11/18 01:56:51;;;;;;;;;;;;;;;4.34;100.00;101509.31;5075983;28;19935;-67
2021/11/18 01:59:19;;;;;;;;;;;;;;;4.36;100.00;101519.06;5075756;28;19925;-66
2021/11/18 02:01:56;;;;;;;;;;;;;;;4.35;100.00;101519.13;5075842;28;19932;-66
2021/11/18 02:04:48;;;;;;;;;;;;;;;4.35;100.00;101511.06;5077223;28;20399;-66
2021/11/18 02:07:16;;;;;;;;;;;;;;;4.32;100.00;101512.06;5076002;28;19928;-66
2021/11/18 02:09:46;;;;;;;;;;;;;;;4.31;100.00;101518.38;5075566;28;19925;-66
2021/11/18 02:12:25;;;;;;;;;;;;;;;4.30;100.00;101523.84;5075777;28;20024;-66
2021/11/18 02:14:53;;;;;;;;;;;;;;;4.33;100.00;101531.78;5075775;28;20389;-66
2021/11/18 02:17:23;;;;;;;;;;;;;;;4.36;100.00;101540.56;5076943;28;19954;-66
2021/11/18 02:19:50;;;;;;;;;;;;;;;4.38;100.00;101531.59;5075430;28;20495;-67
2021/11/18 02:22:18;;;;;;;;;;;;;;;4.39;100.00;101534.19;5075697;28;19938;-67
2021/11/18 02:24:47;;;;;;;;;;;;;;;4.44;100.00;101540.25;5075823;28;20027;-67
2021/11/18 02:27:16;;;;;;;;;;;;;;;4.48;100.00;101541.00;5075491;28;19929;-67
2021/11/18 02:29:44;;;;;;;;;;;;;;;4.51;100.00;101544.41;5075622;28;20034;-66
2021/11/18 02:32:14;;;;;;;;;;;;;;;4.52;100.00;101540.81;5075416;28;19925;-67
2021/11/18 02:34:51;;;;;;;;;;;;;;;4.54;100.00;101538.03;5075684;28;19925;-67
2021/11/18 02:37:19;;;;;;;;;;;;;;;4.54;100.00;101535.34;5071666;28;19958;-66
2021/11/18 02:39:48;;;;;;;;;;;;;;;4.53;100.00;101536.31;5072490;28;19924;-66
2021/11/18 02:42:15;;;;;;;;;;;;;;;4.52;100.00;101535.41;5072266;28;19932;-67
2021/11/18 02:44:42;;;;;;;;;;;;;;;4.52;100.00;101540.81;5072169;28;19928;-67
2021/11/18 02:47:12;;;;;;;;;;;;;;;4.51;100.00;101530.97;5072196;28;20024;-66
2021/11/18 02:49:42;;;;;;;;;;;;;;;4.50;100.00;101534.63;5071913;28;19931;-67
2021/11/18 02:52:09;;;;;;;;;;;;;;;4.51;100.00;101536.34;5072314;28;19924;-67
2021/11/18 02:54:36;;;;;;;;;;;;;;;4.50;100.00;101529.25;5073218;28;20026;-66
2021/11/18 02:57:03;;;;;;;;;;;;;;;4.53;100.00;101537.19;5071847;28;19924;-66
2021/11/18 02:59:29;;;;;;;;;;;;;;;4.55;100.00;101533.56;5072141;28;19974;-67
2021/11/18 03:01:59;;;;;;;;;;;;;;;4.55;100.00;101542.50;5073146;28;19931;-67
2021/11/18 03:04:25;;;;;;;;;;;;;;;4.58;100.00;101534.28;5071967;28;19924;-66
2021/11/18 03:06:54;;;;;;;;;;;;;;;4.55;100.00;101537.09;5071863;28;19929;-67
2021/11/18 03:09:20;;;;;;;;;;;;;;;4.58;100.00;101533.41;5071740;28;19928;-66
2021/11/18 03:11:49;;;;;;;;;;;;;;;4.60;100.00;101545.84;5071659;28;19925;-66
2021/11/18 03:14:16;;;;;;;;;;;;;;;4.63;100.00;101539.47;5071822;28;19959;-66
2021/11/18 03:16:49;;;;;;;;;;;;;;;4.63;100.00;101531.41;5071591;28;19994;-67
2021/11/18 03:19:21;;;;;;;;;;;;;;;4.63;100.00;101532.25;5071596;28;19928;-66
2021/11/18 03:21:49;;;;;;;;;;;;;;;4.63;100.00;101537.66;5071631;28;20024;-66
2021/11/18 03:24:17;;;;;;;;;;;;;;;4.65;100.00;101532.19;5071342;28;19929;-67
2021/11/18 03:26:44;;;;;;;;;;;;;;;4.66;100.00;101523.19;5071703;28;19931;-66
2021/11/18 03:29:24;;;;;;;;;;;;;;;4.64;100.00;101528.63;5071382;28;19928;-67
2021/11/18 03:31:52;;;;;;;;;;;;;;;4.64;100.00;101539.41;5071836;28;20019;-67
2021/11/18 03:34:22;;;;;;;;;;;;;;;4.63;100.00;101537.66;5071198;28;19924;-67
2021/11/18 03:36:49;;;;;;;;;;;;;;;4.64;100.00;101531.34;5071684;28;19935;-67
2021/11/18 03:39:16;;;;;;;;;;;;;;;4.64;100.00;101527.78;5072868;28;20021;-67
2021/11/18 03:41:46;;;;;;;;;;;;;;;4.62;100.00;101538.59;5070939;28;19929;-67
2021/11/18 03:44:13;;;;;;;;;;;;;;;4.63;100.00;101528.72;5071363;28;19964;-67
2021/11/18 03:46:45;;;;;;;;;;;;;;;4.60;100.00;101532.41;5071244;28;19925;-67
2021/11/18 03:49:12;;;;;;;;;;;;;;;4.60;100.00;101536.94;5069690;28;20289;-67
2021/11/18 03:51:43;;;;;;;;;;;;;;;4.59;100.00;101538.72;5073606;28;20019;-67
2021/11/18 03:54:12;;;;;;;;;;;;;;;4.63;100.00;101543.03;5071356;28;20360;-67
2021/11/18 03:56:40;;;;;;;;;;;;;;;4.66;100.00;101542.03;5071283;28;19925;-67
2021/11/18 03:59:07;;;;;;;;;;;;;;;4.65;100.00;101533.09;5070701;28;20011;-67
2021/11/18 04:01:35;;;;;;;;;;;;;;;4.64;100.00;101543.91;5070985;28;20023;-67
2021/11/18 04:04:03;;;;;;;;;;;;;;;4.61;100.00;101561.06;5072079;28;19928;-66
2021/11/18 04:06:30;;;;;;;;;;;;;;;4.59;100.00;101552.16;5070747;28;19978;-66
2021/11/18 04:09:01;;;;;;;;;;;;;;;4.56;100.00;101541.56;5070425;28;19924;-67
2021/11/18 04:11:30;;;;;;;;;;;;;;;4.58;100.00;101553.09;5070761;28;19932;-67
2021/11/18 04:14:01;;;;;;;;;;;;;;;4.56;100.00;101556.78;5070702;28;20294;-67
2021/11/18 04:16:29;;;;;;;;;;;;;;;4.56;100.00;101562.16;5070440;28;19925;-67
2021/11/18 04:18:55;;;;;;;;;;;;;;;4.53;100.00;101574.81;5070557;28;19981;-67
2021/11/18 04:21:28;;;;;;;;;;;;;;;4.53;100.00;101561.38;5070375;28;20524;-67
2021/11/18 04:23:55;;;;;;;;;;;;;;;4.50;100.00;101563.31;5071844;28;20363;-67
2021/11/18 04:26:21;;;;;;;;;;;;;;;4.47;100.00;101564.31;5071274;28;20393;-67
2021/11/18 04:28:47;;;;;;;;;;;;;;;4.42;100.00;101566.31;5070485;28;19928;-67
2021/11/18 04:31:16;;;;;;;;;;;;;;;4.43;100.00;101584.22;5071442;28;19960;-66
2021/11/18 04:33:42;;;;;;;;;;;;;;;4.44;100.00;101594.03;5070075;28;19925;-67
2021/11/18 04:36:10;;;;;;;;;;;;;;;4.44;100.00;101588.66;5070247;28;19970;-66
2021/11/18 04:38:39;;;;;;;;;;;;;;;4.46;100.00;101578.72;5069867;28;19990;-71
2021/11/18 04:41:06;;;;;;;;;;;;;;;4.47;100.00;101577.75;5069952;28;19928;-67
2021/11/18 04:43:33;;;;;;;;;;;;;;;4.49;100.00;101575.91;5069692;28;19932;-66
2021/11/18 04:46:02;;;;;;;;;;;;;;;4.55;100.00;101581.97;5069954;28;20390;-67
2021/11/18 04:48:29;;;;;;;;;;;;;;;4.59;100.00;101573.69;5069802;28;19931;-67
2021/11/18 04:50:56;;;;;;;;;;;;;;;4.62;100.00;101576.25;5069777;28;19925;-66
2021/11/18 04:53:26;;;;;;;;;;;;;;;4.66;100.00;101583.25;5069987;28;19978;-66
2021/11/18 04:55:55;;;;;;;;;;;;;;;4.66;100.00;101571.59;5069853;28;20026;-67
2021/11/18 04:58:22;;;;;;;;;;;;;;;4.67;100.00;101579.59;5069839;28;20413;-67
2021/11/18 05:00:51;;;;;;;;;;;;;;;4.67;100.00;101579.59;5069227;28;20381;-66
2021/11/18 05:03:17;;;;;;;;;;;;;;;4.68;100.00;101580.50;5069809;28;19932;-67
2021/11/18 05:05:44;;;;;;;;;;;;;;;4.65;100.00;101588.66;5070008;28;20014;-67
2021/11/18 05:08:11;;;;;;;;;;;;;;;4.65;100.00;101583.28;5069479;28;19959;-67
2021/11/18 05:10:38;;;;;;;;;;;;;;;4.63;100.00;101582.50;5069886;28;19970;-66
2021/11/18 05:13:05;;;;;;;;;;;;;;;4.60;100.00;101580.81;5069738;28;19924;-67
2021/11/18 05:15:45;;;;;;;;;;;;;;;4.61;100.00;101597.81;5053049;28;20001;-67
2021/11/18 05:18:12;;;;;;;;;;;;;;;4.64;100.00;101587.81;5069265;28;19939;-67
2021/11/18 05:20:39;;;;;;;;;;;;;;;4.63;100.00;101585.19;5069413;28;19931;-67
2021/11/18 05:23:06;;;;;;;;;;;;;;;4.61;100.00;101590.66;5070845;28;19963;-67
2021/11/18 05:25:43;;;;;;;;;;;;;;;4.61;100.00;101579.00;5069613;28;19925;-67
2021/11/18 05:28:12;;;;;;;;;;;;;;;4.60;100.00;101578.13;5069407;28;20015;-67
2021/11/18 05:30:38;;;;;;;;;;;;;;;4.59;100.00;101586.25;5069427;28;19928;-67
2021/11/18 05:33:05;;;;;;;;;;;;;;;4.61;100.00;101582.56;5069613;28;19929;-67
2021/11/18 05:35:33;;;;;;;;;;;;;;;4.65;100.00;101585.97;5070383;28;20398;-67
2021/11/18 05:38:00;;;;;;;;;;;;;;;4.66;100.00;101585.06;5069074;28;19924;-68
2021/11/18 05:40:27;;;;;;;;;;;;;;;4.65;100.00;101581.50;5079559;28;19959;-67
2021/11/18 05:42:54;;;;;;;;;;;;;;;4.62;100.00;101605.84;5069638;28;20301;-65
2021/11/18 05:45:23;;;;;;;;;;;;;;;4.58;100.00;101597.97;5074744;28;19928;-66
2021/11/18 05:48:03;;;;;;;;;;;;;;;4.59;100.00;101594.34;5073418;28;19924;-66
2021/11/18 05:50:30;;;;;;;;;;;;;;;4.62;100.00;101600.47;5069335;28;19928;-66
2021/11/18 05:52:57;;;;;;;;;;;;;;;4.64;100.00;101603.09;5069133;28;20451;-66
2021/11/18 05:55:27;;;;;;;;;;;;;;;4.66;100.00;101603.88;5068718;28;19968;-66
2021/11/18 05:57:53;;;;;;;;;;;;;;;4.73;100.00;101605.38;5076687;28;20014;-66
2021/11/18 06:00:21;;;;;;;;;;;;;;;4.81;100.00;101610.41;5086710;28;19940;-66
2021/11/18 06:02:51;;;;;;;;;;;;;;;4.85;100.00;101612.03;5070344;28;20060;-66
2021/11/18 06:05:18;;;;;;;;;;;;;;;4.87;100.00;101604.78;5080226;28;20024;-66
2021/11/18 06:07:45;;;;;;;;;;;;;;;4.88;100.00;101611.91;5080356;28;20458;-66
2021/11/18 06:10:13;;;;;;;;;;;;;;;4.89;100.00;101604.72;5077291;28;20385;-67
2021/11/18 06:12:39;;;;;;;;;;;;;;;4.90;100.00;101599.25;5076119;28;19935;-67
2021/11/18 06:15:09;;;;;;;;;;;;;;;4.92;100.00;101607.25;5083727;28;20459;-66
2021/11/18 06:17:35;;;;;;;;;;;;;;;4.93;100.00;101617.09;5092237;28;19924;-66
2021/11/18 06:20:04;;;;;;;;;;;;;;;4.93;100.00;101622.47;5092172;28;19966;-66
2021/11/18 06:22:36;;;;;;;;;;;;;;;4.91;100.00;101632.44;5072767;28;19955;-68
2021/11/18 06:25:09;;;;;;;;;;;;;;;4.90;100.00;101630.69;5055905;28;20351;-66
2021/11/18 06:27:36;;;;;;;;;;;;;;;4.85;100.00;101634.44;5073088;28;19981;-66
2021/11/18 06:30:04;;;;;;;;;;;;;;;4.82;100.00;101637.28;5087610;28;19982;-66
2021/11/18 06:32:31;;;;;;;;;;;;;;;4.78;100.00;101637.47;5075684;28;20401;-66
2021/11/18 06:34:57;;;;;;;;;;;;;;;4.71;100.00;101626.06;5093108;28;19928;-66
2021/11/18 06:37:25;;;;;;;;;;;;;;;4.69;100.00;101631.53;5092506;28;19924;-66
2021/11/18 06:39:51;;;;;;;;;;;;;;;4.63;100.00;101645.22;5084480;28;19929;-66
2021/11/18 06:42:18;;;;;;;;;;;;;;;4.56;100.00;101642.84;5073392;28;19935;-67
2021/11/18 06:44:55;;;;;;;;;;;;;;;4.53;100.00;101654.63;5087697;28;20036;-66
2021/11/18 06:47:22;;;;;;;;;;;;;;;4.49;100.00;101650.28;5086903;28;19994;-67
2021/11/18 06:49:52;;;;;;;;;;;;;;;4.42;100.00;101655.03;5079065;28;19925;-67
2021/11/18 06:52:18;;;;;;;;;;;;;;;4.40;100.00;101665.00;5078911;28;19924;-67
2021/11/18 06:54:49;;;;;;;;;;;;;;;4.37;100.00;101659.75;5090782;28;19958;-66
2021/11/18 06:57:17;;;;;;;;;;;;;;;4.33;100.00;101666.19;5092426;28;19928;-66
2021/11/18 06:59:43;;;;;;;;;;;;;;;4.30;100.00;101659.13;5086350;28;20031;-68
2021/11/18 07:02:10;;;;;;;;;;;;;;;4.31;100.00;101660.84;5093584;28;19932;-67
2021/11/18 07:04:36;;;;;;;;;;;;;;;4.32;100.00;101667.13;5093266;28;20366;-67
2021/11/18 07:07:03;;;;;;;;;;;;;;;4.33;100.00;101667.06;5090551;28;19924;-66
2021/11/18 07:09:30;;;;;;;;;;;;;;;4.35;100.00;101669.69;5085074;28;19987;-68
2021/11/18 07:12:18;;;;;;;;;;;;;;;4.39;100.00;101673.13;5086645;28;20435;-67
2021/11/18 07:14:45;;;;;;;;;;;;;;;4.45;100.00;101683.63;5082466;28;19928;-67
2021/11/18 07:17:12;;;;;;;;;;;;;;;4.50;100.00;101678.94;5073049;28;19932;-67
2021/11/18 07:19:38;;;;;;;;;;;;;;;4.56;100.00;101675.13;5076549;28;19959;-67
2021/11/18 07:22:06;;;;;;;;;;;;;;;4.61;100.00;101678.50;5089779;28;19928;-67
2021/11/18 07:24:51;;;;;;;;;;;;;;;4.68;100.00;101677.31;5093304;28;19931;-67
2021/11/18 07:27:19;;;;;;;;;;;;;;;4.74;100.00;101679.75;5074376;28;20301;-66
2021/11/18 07:29:46;;;;;;;;;;;;;;;4.85;100.00;101690.94;5087089;28;20274;-66
2021/11/18 07:32:13;;;;;;;;;;;;;;;4.93;100.00;101689.72;5091608;28;19932;-66
2021/11/18 07:34:39;;;;;;;;;;;;;;;4.94;100.00;101681.59;5092108;28;19958;-66
2021/11/18 07:37:19;;;;;;;;;;;;;;;5.05;100.00;101683.84;5091074;28;20696;-67
2021/11/18 07:39:46;;;;;;;;;;;;;;;5.16;100.00;101670.78;5090182;28;19928;-66
2021/11/18 07:42:12;;;;;;;;;;;;;;;5.20;100.00;101675.09;5082861;28;19951;-66
2021/11/18 07:45:07;;;;;;;;;;;;;;;5.41;100.00;101683.19;5085967;28;19931;-67
2021/11/18 07:47:52;;;;;;;;;;;;;;;5.68;100.00;101693.66;5092698;28;19932;-67
2021/11/18 07:50:22;;;;;;;;;;;;;;;5.96;100.00;101687.00;5089729;28;19977;-67
2021/11/18 07:52:48;;;;;;;;;;;;;;;6.03;100.00;101693.91;5091415;28;20446;-66
2021/11/18 07:55:18;;;;;;;;;;;;;;;5.98;100.00;101688.69;5091216;28;19951;-67
2021/11/18 07:57:47;;;;;;;;;;;;;;;5.95;100.00;101690.66;5091287;28;20106;-66
2021/11/18 08:00:16;;;;;;;;;;;;;;;5.85;100.00;101691.06;5090835;28;19928;-67
2021/11/18 08:02:45;;;;;;;;;;;;;;;5.83;100.00;101681.31;5089711;28;20332;-67
2021/11/18 08:05:32;;;;;;;;;;;;;;;5.83;100.00;101681.31;5092328;28;19928;-67
2021/11/18 08:07:59;;;;;;;;;;;;;;;5.83;100.00;101687.56;5090765;28;20014;-67
2021/11/18 08:10:25;;;;;;;;;;;;;;;5.86;100.00;101694.63;5091394;28;19977;-66
2021/11/18 08:12:51;;;;;;;;;;;;;;;5.82;100.00;101691.19;5090753;28;19942;-67
2021/11/18 08:15:20;;;;;;;;;;;;;;;5.81;100.00;101686.78;5090719;28;20446;-67
2021/11/18 08:17:51;;;;;;;;;;;;;;;5.85;100.00;101699.16;5090468;28;19924;-67
2021/11/18 08:20:18;;;;;;;;;;;;;;;5.93;100.00;101706.00;5090756;28;19939;-67
2021/11/18 08:22:45;;;;;;;;;;;;;;;5.89;100.00;101702.56;5090854;28;19924;-67
2021/11/18 08:25:15;;;;;;;;;;;;;;;5.95;100.00;101714.91;5090586;28;19928;-67
2021/11/18 08:27:45;;;;;;;;;;;;;;;6.00;100.00;101715.59;5087214;28;19963;-67
2021/11/18 08:30:15;;;;;;;;;;;;;;;6.02;100.00;101719.97;5085181;28;19924;-67
2021/11/18 08:32:44;;;;;;;;;;;;;;;6.05;100.00;101721.63;5090138;28;19935;-68
2021/11/18 08:35:19;;;;;;;;;;;;;;;6.07;100.00;101710.81;5085338;28;19932;-67
2021/11/18 08:37:45;;;;;;;;;;;;;;;6.11;100.00;101720.50;5069984;28;20022;-67
2021/11/18 08:40:12;;;;;;;;;;;;;;;6.16;100.00;101726.53;5079544;28;19936;-68
2021/11/18 08:42:39;;;;;;;;;;;;;;;6.18;100.00;101724.66;5090375;28;20362;-67
2021/11/18 08:45:06;;;;;;;;;;;;;;;6.19;100.00;101721.88;5091009;28;19963;-68
2021/11/18 08:47:33;;;;;;;;;;;;;;;6.26;100.00;101721.59;5081674;28;19928;-67
2021/11/18 08:50:01;;;;;;;;;;;;;;;6.31;100.00;101719.56;5083003;28;19925;-66
2021/11/18 08:52:31;;;;;;;;;;;;;;;6.35;100.00;101726.56;5070140;28;19925;-66
2021/11/18 08:55:00;;;;;;;;;;;;;;;6.32;100.00;101711.41;5069866;28;19970;-67
2021/11/18 08:57:28;;;;;;;;;;;;;;;6.41;100.00;101701.97;5069746;28;19928;-66
2021/11/18 09:00:19;;;;;;;;;;;;;;;6.46;100.00;101701.75;5072738;28;19924;-66
2021/11/18 09:02:58;;;;;;;;;;;;;;;6.52;100.00;101704.13;5069333;28;19933;-66
2021/11/18 09:05:27;;;;;;;;;;;;;;;6.56;100.00;101713.88;5073206;28;19947;-67
2021/11/18 09:07:54;;;;;;;;;;;;;;;6.54;100.00;101711.22;5090937;28;19924;-67
2021/11/18 09:10:21;;;;;;;;;;;;;;;6.56;100.00;101703.06;5089381;28;19934;-67
2021/11/18 09:12:52;;;;;;;;;;;;;;;6.61;100.00;101703.69;5088053;28;19931;-67
2021/11/18 09:15:20;;;;;;;;;;;;;;;6.61;100.00;101701.00;5087360;28;19939;-66
2021/11/18 09:17:47;;;;;;;;;;;;;;;6.62;100.00;101718.06;5100865;28;20376;-66
2021/11/18 09:20:27;;;;;;;;;;;;;;;6.62;100.00;101713.53;5092580;28;20307;-67
2021/11/18 09:22:57;;;;;;;;;;;;;;;6.60;100.00;101725.34;5089362;28;19935;-68
2021/11/18 09:25:27;;;;;;;;;;;;;;;6.61;100.00;101710.94;5077293;28;19986;-66
2021/11/18 09:27:56;;;;;;;;;;;;;;;6.70;100.00;101699.69;5068711;28;19956;-67
2021/11/18 09:30:25;;;;;;;;;;;;;;;6.82;100.00;101699.06;5069587;28;19925;-67
2021/11/18 09:32:55;;;;;;;;;;;;;;;6.82;100.00;101707.16;5089920;28;19939;-67
2021/11/18 09:35:25;;;;;;;;;;;;;;;6.85;100.00;101701.63;5089424;28;19934;-67
2021/11/18 09:37:56;;;;;;;;;;;;;;;6.83;100.00;101697.25;5089148;28;19928;-67
2021/11/18 09:40:27;;;;;;;;;;;;;;;6.84;100.00;101693.59;5088693;28;19928;-66
2021/11/18 09:43:34;;;;;;;;;;;;;;;6.81;100.00;101701.84;5089428;28;19940;-66
2021/11/18 09:46:08;;;;;;;;;;;;;;;6.83;100.00;101700.81;5091026;28;19947;-66
2021/11/18 09:48:52;;;;;;;;;;;;;;;6.87;100.00;101704.25;5090449;28;20252;-67
2021/11/18 09:51:33;;;;;;;;;;;;;;;6.92;100.00;101709.41;5080529;28;19932;-66
2021/11/18 09:54:11;;;;;;;;;;;;;;;6.95;100.00;101687.63;5074156;28;20447;-65
2021/11/18 09:56:41;;;;;;;;;;;;;;;7.00;100.00;101696.38;5082843;28;20580;-66
2021/11/18 09:59:21;;;;;;;;;;;;;;;7.05;100.00;101705.13;5085093;28;19928;-66
2021/11/18 10:02:01;;;;;;;;;;;;;;;7.11;100.00;101709.34;5084772;28;20411;-65
2021/11/18 10:04:32;;;;;;;;;;;;;;;7.13;100.00;101710.16;5090832;28;19985;-66
2021/11/18 10:07:00;;;;;;;;;;;;;;;7.14;100.00;101704.66;5089753;28;20471;-72
2021/11/18 10:09:31;;;;;;;;;;;;;;;7.18;100.00;101705.38;5077939;28;19924;-73
2021/11/18 10:12:01;;;;;;;;;;;;;;;7.26;100.00;101707.69;5073840;28;19935;-72
2021/11/18 10:14:49;;;;;;;;;;;;;;;7.27;100.00;101710.31;5079574;28;19947;-72
2021/11/18 10:17:19;;;;;;;;;;;;;;;7.31;100.00;101719.13;5086166;28;19934;-74
2021/11/18 10:19:47;;;;;;;;;;;;;;;7.39;100.00;101722.31;5085693;28;19958;-74
2021/11/18 10:22:15;;;;;;;;;;;;;;;7.43;100.00;101725.72;5078032;28;20443;-73
2021/11/18 10:24:44;;;;;;;;;;;;;;;7.51;100.00;101721.66;5088834;28;20008;-73
2021/11/18 10:27:14;;;;;;;;;;;;;;;7.51;100.00;101720.81;5090763;28;20292;-73
2021/11/18 10:29:54;;;;;;;;;;;;;;;7.48;100.00;101721.84;5073631;28;19935;-73
2021/11/18 10:32:23;;;;;;;;;;;;;;;7.48;100.00;101719.13;5087749;28;19962;-73
2021/11/18 10:34:52;;;;;;;;;;;;;;;7.47;100.00;101714.69;5092057;28;19928;-73
2021/11/18 10:37:22;;;;;;;;;;;;;;;7.48;100.00;101711.03;5091986;28;19928;-73
2021/11/18 10:39:58;;;;;;;;;;;;;;;7.53;100.00;101713.47;5089430;28;19924;-73
2021/11/18 10:42:28;;;;;;;;;;;;;;;7.55;100.00;101703.47;5093264;28;19958;-73
2021/11/18 10:44:56;;;;;;;;;;;;;;;7.60;100.00;101705.91;5086994;28;20469;-73
2021/11/18 10:47:26;;;;;;;;;;;;;;;7.58;100.00;101707.84;5091604;28;19997;-74
2021/11/18 10:49:56;;;;;;;;;;;;;;;7.61;100.00;101707.66;5088454;28;19936;-74
2021/11/18 10:52:28;;;;;;;;;;;;;;;7.66;100.00;101695.66;5081967;28;20090;-73
2021/11/18 10:55:02;;;;;;;;;;;;;;;7.68;100.00;101687.47;5086256;28;20431;-72
2021/11/18 10:57:31;;;;;;;;;;;;;;;7.74;100.00;101695.25;5083063;28;19959;-72
2021/11/18 11:00:10;;;;;;;;;;;;;;;7.76;100.00;101687.06;5092979;28;20069;-72
2021/11/18 11:02:37;;;;;;;;;;;;;;;7.81;100.00;101680.44;5088362;28;19924;-72
2021/11/18 11:05:21;;;;;;;;;;;;;;;7.93;100.00;101669.91;5081537;28;20023;-72
2021/11/18 11:07:48;;;;;;;;;;;;;;;8.05;100.00;101658.41;5079403;28;19951;-73
2021/11/18 11:10:17;;;;;;;;;;;;;;;8.26;100.00;101671.69;5092679;28;19924;-74
2021/11/18 11:12:48;;;;;;;;;;;;;;;8.41;100.00;101660.00;5092766;28;19924;-74
2021/11/18 11:15:23;;;;;;;;;;;;;;;8.64;100.00;101655.13;5080114;28;20020;-74
2021/11/18 11:18:11;;;;;;;;;;;;;;;8.75;100.00;101663.47;5073435;28;20025;-75
2021/11/18 11:20:53;;;;;;;;;;;;;;;8.71;100.00;101651.09;5072755;28;20045;-74
2021/11/18 11:23:24;;;;;;;;;;;;;;;8.70;100.00;101646.66;5072402;28;19928;-73
2021/11/18 11:26:05;;;;;;;;;;;;;;;8.74;100.00;101637.38;5072582;28;19935;-74
2021/11/18 11:28:40;;;;;;;;;;;;;;;8.74;100.00;101641.91;5087279;28;20381;-73
2021/11/18 11:31:20;;;;;;;;;;;;;;;8.77;100.00;101644.47;5077069;28;20357;-75
2021/11/18 11:33:49;;;;;;;;;;;;;;;8.88;100.00;101652.81;5087627;28;20027;-74
2021/11/18 11:36:19;;;;;;;;;;;;;;;8.84;100.00;101652.09;5091664;28;19928;-74
2021/11/18 11:38:58;;;;;;;;;;;;;;;8.80;100.00;101655.09;5080904;28;20359;-74
2021/11/18 11:41:34;;;;;;;;;;;;;;;8.84;100.00;101643.97;5092325;28;19989;-73
2021/11/18 11:44:06;;;;;;;;;;;;;;;8.79;100.00;101643.41;5087731;28;20053;-74
2021/11/18 11:46:40;;;;;;;;;;;;;;;8.82;100.00;101645.06;5079340;28;19958;-74
2021/11/18 11:49:16;;;;;;;;;;;;;;;8.76;100.00;101643.56;5071231;28;19963;-74
2021/11/18 11:51:57;;;;;;;;;;;;;;;8.74;100.00;101648.22;5072001;28;20026;-73
2021/11/18 11:54:40;;;;;;;;;;;;;;;8.78;100.00;101652.50;5057669;28;20058;-73
2021/11/18 11:57:15;;;;;;;;;;;;;;;8.80;100.00;101650.53;5082500;28;19925;-73
2021/11/18 11:59:46;;;;;;;;;;;;;;;8.85;100.00;101650.28;5080510;28;19955;-74
2021/11/18 12:02:15;;;;;;;;;;;;;;;8.82;100.00;101648.63;5085532;28;19967;-74
2021/11/18 12:04:44;;;;;;;;;;;;;;;8.82;100.00;101640.50;5079783;28;20380;-73
2021/11/18 12:07:17;;;;;;;;;;;;;;;8.80;100.00;101641.56;5076347;28;20470;-73
2021/11/18 12:09:46;;;;;;;;;;;;;;;8.74;100.00;101634.69;5079924;28;19964;-73
2021/11/18 12:12:19;;;;;;;;;;;;;;;8.73;100.00;101638.34;5090419;28;20027;-74
2021/11/18 12:14:47;;;;;;;;;;;;;;;8.71;100.00;101640.25;5092043;28;20015;-74
2021/11/18 12:17:18;;;;;;;;;;;;;;;8.67;100.00;101638.69;5091388;28;19934;-73
2021/11/18 12:19:46;;;;;;;;;;;;;;;8.65;100.00;101625.25;5091955;28;19946;-73
2021/11/18 12:22:27;;;;;;;;;;;;;;;8.63;100.00;101629.91;5090237;28;20397;-73
2021/11/18 12:25:01;;;;;;;;;;;;;;;8.66;100.00;101615.31;5091636;28;20401;-73
2021/11/18 12:27:29;;;;;;;;;;;;;;;8.64;100.00;101598.28;5090645;28;19966;-73
2021/11/18 12:30:10;;;;;;;;;;;;;;;8.73;100.00;101605.88;5089242;28;19924;-74
2021/11/18 12:32:38;;;;;;;;;;;;;;;8.74;100.00;101613.03;5071187;28;20458;-72
2021/11/18 12:35:08;;;;;;;;;;;;;;;8.77;100.00;101604.72;5070492;28;19966;-73
2021/11/18 12:37:38;;;;;;;;;;;;;;;8.77;100.00;101596.59;5070743;28;19924;-73
2021/11/18 12:40:17;;;;;;;;;;;;;;;8.80;100.00;101595.53;5074759;28;20019;-74
2021/11/18 12:42:58;;;;;;;;;;;;;;;8.80;100.00;101595.53;5086110;28;19932;-73
2021/11/18 12:45:44;;;;;;;;;;;;;;;8.81;100.00;101589.16;5075397;28;19971;-73
2021/11/18 12:48:23;;;;;;;;;;;;;;;8.84;100.00;101595.25;5090041;28;20093;-73
2021/11/18 12:50:58;;;;;;;;;;;;;;;8.84;100.00;101586.25;5079841;28;20595;-73